Time;durP1;ratioP1;P1;durP2;ratioP2;P2;SDS_P1;SDS_P2;PMS_P1;PMS_P2;Temp;Humidity;BMP_temperature;BMP_pressure;BME280_temperature;BME280_humidity;BME280_pressure;Samples;Min_cycle;Max_cycle;Signal;HPM_P1;HPM_P2
2021/10/09 00:00:39;;;;;;;49.97;24.10;;;;;;;10.98;100.00;102847.22;7392309;19;20748;-53
2021/10/09 00:03:09;;;;;;;37.90;20.77;;;;;;;10.94;100.00;102848.69;7399083;19;20873;-55
2021/10/09 00:05:41;;;;;;;35.93;21.67;;;;;;;10.93;100.00;102849.47;7373346;19;20427;-56
2021/10/09 00:08:14;;;;;;;40.30;22.27;;;;;;;10.87;100.00;102846.44;7398806;19;20420;-50
2021/10/09 00:10:44;;;;;;;45.53;23.33;;;;;;;10.89;100.00;102850.03;7392350;19;20419;-50
2021/10/09 00:13:14;;;;;;;41.70;23.43;;;;;;;10.82;100.00;102852.94;7398851;19;20834;-53
2021/10/09 00:15:43;;;;;;;36.10;22.30;;;;;;;10.76;100.00;102850.78;7391644;19;20478;-50
2021/10/09 00:18:13;;;;;;;38.93;22.97;;;;;;;10.73;100.00;102847.97;7397808;19;20390;-50
2021/10/09 00:20:45;;;;;;;42.37;22.60;;;;;;;10.70;100.00;102847.75;7373889;19;20683;-53
2021/10/09 00:23:14;;;;;;;44.33;22.97;;;;;;;10.66;100.00;102850.09;7397627;19;20403;-55
2021/10/09 00:25:44;;;;;;;37.37;19.80;;;;;;;10.53;100.00;102848.28;7392194;19;20502;-53
2021/10/09 00:28:13;;;;;;;49.13;23.00;;;;;;;10.50;100.00;102857.47;7403012;19;20472;-51
2021/10/09 00:30:43;;;;;;;43.43;22.63;;;;;;;10.66;100.00;102844.94;7391392;19;20414;-54
2021/10/09 00:33:12;;;;;;;41.90;21.80;;;;;;;10.82;100.00;102852.94;7398205;19;20762;-52
2021/10/09 00:35:44;;;;;;;38.00;22.40;;;;;;;10.78;100.00;102841.50;7394602;19;20483;-52
2021/10/09 00:38:14;;;;;;;39.13;22.43;;;;;;;10.78;100.00;102846.66;7397446;19;20399;-56
2021/10/09 00:40:43;;;;;;;72.33;37.87;;;;;;;10.76;100.00;102843.94;7391650;19;20419;-53
2021/10/09 00:43:13;;;;;;;51.70;26.10;;;;;;;10.69;100.00;102836.53;7398056;19;20404;-55
2021/10/09 00:45:52;;;;;;;52.33;27.53;;;;;;;10.83;100.00;102840.16;7390864;19;20715;-52
2021/10/09 00:48:21;;;;;;;58.40;32.97;;;;;;;10.85;100.00;102836.00;7398305;19;20396;-54
2021/10/09 00:50:54;;;;;;;62.43;34.27;;;;;;;10.76;100.00;102835.28;7370850;19;20395;-55
2021/10/09 00:53:25;;;;;;;45.97;25.53;;;;;;;10.83;100.00;102832.41;7396545;19;20411;-53
2021/10/09 00:55:55;;;;;;;46.30;25.80;;;;;;;10.80;100.00;102839.91;7365244;19;20478;-56
2021/10/09 00:58:25;;;;;;;50.50;27.17;;;;;;;10.76;100.00;102833.63;7396261;19;20390;-51
2021/10/09 01:00:59;;;;;;;51.30;26.90;;;;;;;10.72;100.00;102835.88;7369889;19;20486;-56
2021/10/09 01:03:29;;;;;;;45.20;25.83;;;;;;;10.50;100.00;102837.75;7396446;19;20496;-56
2021/10/09 01:06:01;;;;;;;48.67;27.97;;;;;;;10.50;100.00;102836.81;7389264;19;20427;-54
2021/10/09 01:08:30;;;;;;;69.00;37.07;;;;;;;10.35;100.00;102840.03;7397922;19;20439;-55
2021/10/09 01:11:00;;;;;;;66.07;35.70;;;;;;;10.31;100.00;102845.72;7392572;19;20772;-53
2021/10/09 01:13:29;;;;;;;78.57;39.50;;;;;;;10.37;100.00;102846.19;7406414;19;20431;-51
2021/10/09 01:15:58;;;;;;;70.87;37.77;;;;;;;10.75;100.00;102846.41;7396709;19;20422;-56
2021/10/09 01:18:28;;;;;;;65.57;36.50;;;;;;;10.75;100.00;102839.56;7401460;19;20438;-56
2021/10/09 01:21:02;;;;;;;94.57;50.70;;;;;;;10.66;100.00;102832.03;7401365;19;20985;-56
2021/10/09 01:23:33;;;;;;;72.70;39.70;;;;;;;10.89;100.00;102834.53;7403808;19;20471;-56
2021/10/09 01:26:03;;;;;;;82.97;42.70;;;;;;;11.11;100.00;102820.59;7396472;19;20441;-55
2021/10/09 01:28:33;;;;;;;57.47;33.43;;;;;;;11.16;100.00;102825.31;7404617;19;20393;-52
2021/10/09 01:31:02;;;;;;;45.43;22.63;;;;;;;10.99;100.00;102818.03;7398770;19;20449;-56
2021/10/09 01:33:32;;;;;;;47.23;25.30;;;;;;;10.87;100.00;102821.50;7403394;19;20495;-57
2021/10/09 01:36:04;;;;;;;48.00;27.50;;;;;;;10.78;100.00;102820.81;7396105;19;20676;-55
2021/10/09 01:38:35;;;;;;;42.00;22.67;;;;;;;10.86;100.00;102813.66;7403295;19;20392;-52
2021/10/09 01:41:05;;;;;;;40.93;23.97;;;;;;;10.80;100.00;102815.00;7373829;19;20737;-56
2021/10/09 01:43:34;;;;;;;41.63;22.97;;;;;;;10.75;100.00;102815.41;7402600;19;20692;-51
2021/10/09 01:46:04;;;;;;;38.20;21.53;;;;;;;10.59;100.00;102809.13;7395721;19;20491;-54
2021/10/09 01:48:35;;;;;;;37.37;21.20;;;;;;;10.92;100.00;102809.81;7406461;19;20387;-52
2021/10/09 01:51:09;;;;;;;34.40;20.63;;;;;;;10.59;100.00;102813.38;7400891;19;20443;-54
2021/10/09 01:53:40;;;;;;;38.47;22.20;;;;;;;10.67;100.00;102817.47;7402743;19;20459;-53
2021/10/09 01:56:10;;;;;;;37.50;21.67;;;;;;;10.75;100.00;102815.41;7395860;19;20430;-54
2021/10/09 01:58:39;;;;;;;36.43;20.93;;;;;;;10.77;100.00;102813.88;7402517;19;20738;-52
2021/10/09 02:01:09;;;;;;;40.97;24.60;;;;;;;10.50;100.00;102804.19;7395509;19;20421;-54
2021/10/09 02:03:38;;;;;;;35.63;19.83;;;;;;;10.61;100.00;102812.72;7402327;19;20742;-57
2021/10/09 02:06:11;;;;;;;40.90;23.10;;;;;;;10.66;100.00;102801.06;7395479;19;20495;-56
2021/10/09 02:08:41;;;;;;;35.00;19.27;;;;;;;10.61;100.00;102804.97;7403420;19;20398;-54
2021/10/09 02:11:13;;;;;;;34.80;19.97;;;;;;;10.56;100.00;102800.28;7395830;19;20403;-56
2021/10/09 02:13:46;;;;;;;37.93;21.00;;;;;;;10.46;100.00;102802.16;7402084;19;20419;-56
2021/10/09 02:16:33;;;;;;;45.37;23.17;;;;;;;10.44;100.00;102802.81;7395392;19;20419;-56
2021/10/09 02:24:06;;;;;;;38.20;20.90;;;;;;;10.22;100.00;102808.91;7401920;19;20386;-56
2021/10/09 02:24:54;;;;;;;42.07;22.03;;;;;;;10.17;100.00;102802.50;7400713;19;20422;-56
2021/10/09 02:27:24;;;;;;;39.40;21.80;;;;;;;10.30;100.00;102804.34;7394534;19;20425;-56
2021/10/09 02:29:53;;;;;;;39.20;20.20;;;;;;;10.17;100.00;102797.34;7406643;19;20659;-56
2021/10/09 02:32:23;;;;;;;34.27;20.37;;;;;;;10.28;100.00;102801.63;7368739;19;20399;-51
2021/10/09 02:34:52;;;;;;;37.53;21.60;;;;;;;10.07;100.00;102812.13;7400288;19;20916;-53
2021/10/09 02:37:24;;;;;;;40.43;20.40;;;;;;;10.04;100.00;102803.25;7375589;19;20419;-53
2021/10/09 02:39:54;;;;;;;40.43;20.97;;;;;;;10.12;100.00;102805.63;7400527;19;20395;-51
2021/10/09 02:42:23;;;;;;;34.30;20.33;;;;;;;10.00;100.00;102804.66;7394019;19;20772;-54
2021/10/09 02:44:53;;;;;;;33.97;19.90;;;;;;;9.95;100.00;102808.59;7400112;19;20498;-53
2021/10/09 02:47:22;;;;;;;35.97;20.37;;;;;;;9.57;100.00;102798.00;7372821;19;20403;-52
2021/10/09 02:49:51;;;;;;;33.33;20.57;;;;;;;9.41;100.00;102802.72;7401689;19;20455;-53
2021/10/09 02:52:21;;;;;;;35.53;19.50;;;;;;;9.39;100.00;102807.72;7398198;19;20426;-52
2021/10/09 02:54:53;;;;;;;32.60;20.07;;;;;;;9.37;100.00;102805.81;7399610;19;20426;-54
2021/10/09 02:57:22;;;;;;;37.80;21.13;;;;;;;9.65;100.00;102810.59;7367758;19;20401;-51
2021/10/09 02:59:52;;;;;;;38.63;21.80;;;;;;;9.64;100.00;102811.38;7399969;19;20388;-54
2021/10/09 03:02:21;;;;;;;34.60;19.87;;;;;;;9.73;100.00;102815.56;7395379;19;20702;-53
2021/10/09 03:04:51;;;;;;;34.77;20.60;;;;;;;9.70;100.00;102809.28;7401141;19;20455;-54
2021/10/09 03:07:20;;;;;;;32.03;19.97;;;;;;;9.91;100.00;102810.06;7396960;19;20427;-51
2021/10/09 03:09:52;;;;;;;34.10;18.63;;;;;;;10.07;100.00;102804.38;7401218;19;20455;-54
2021/10/09 03:12:22;;;;;;;36.57;19.20;;;;;;;10.16;100.00;102800.69;7397607;19;20427;-54
2021/10/09 03:14:51;;;;;;;34.70;19.77;;;;;;;9.84;100.00;102797.44;7399381;19;20430;-51
2021/10/09 03:17:21;;;;;;;32.07;20.23;;;;;;;9.79;100.00;102797.09;7393647;19;20421;-54
2021/10/09 03:19:50;;;;;;;35.83;20.57;;;;;;;9.92;100.00;102801.53;7399571;19;20738;-55
2021/10/09 03:22:20;;;;;;;35.63;18.97;;;;;;;9.75;100.00;102802.81;7395585;19;20438;-55
2021/10/09 03:24:49;;;;;;;31.07;17.93;;;;;;;9.86;100.00;102801.94;7399083;19;20411;-50
2021/10/09 03:27:21;;;;;;;33.60;18.37;;;;;;;9.60;100.00;102805.06;7390221;19;20432;-53
2021/10/09 03:29:51;;;;;;;31.83;18.70;;;;;;;9.23;100.00;102800.47;7400374;19;20392;-53
2021/10/09 03:32:20;;;;;;;37.60;19.30;;;;;;;9.23;100.00;102807.31;7393745;19;20491;-53
2021/10/09 03:34:50;;;;;;;33.50;19.47;;;;;;;9.04;100.00;102811.84;7396498;19;20430;-55
2021/10/09 03:37:19;;;;;;;35.13;19.80;;;;;;;9.37;100.00;102806.72;7396484;19;20411;-53
2021/10/09 03:39:50;;;;;;;30.73;18.70;;;;;;;9.30;100.00;102807.94;7399244;19;20841;-55
2021/10/09 03:42:26;;;;;;;31.50;19.03;;;;;;;9.27;100.00;102809.34;7392771;19;20421;-54
2021/10/09 03:44:59;;;;;;;30.00;18.30;;;;;;;9.27;100.00;102817.06;7398479;19;20396;-55
2021/10/09 03:47:42;;;;;;;32.30;18.60;;;;;;;9.26;100.00;102808.44;7399645;19;20421;-54
2021/10/09 03:50:21;;;;;;;31.70;18.80;;;;;;;9.28;100.00;102809.47;7388466;19;20383;-54
2021/10/09 03:52:48;;;;;;;31.80;17.00;;;;;;;9.56;100.00;102814.25;7400924;19;20400;-53
2021/10/09 03:55:22;;;;;;;26.27;17.67;;;;;;;9.50;100.00;102811.19;7396560;19;20462;-51
2021/10/09 03:57:54;;;;;;;29.90;18.17;;;;;;;9.70;100.00;102809.28;7400013;19;20724;-55
2021/10/09 04:00:24;;;;;;;26.43;16.87;;;;;;;9.54;100.00;102802.91;7386693;19;20494;-55
2021/10/09 04:02:54;;;;;;;26.40;16.80;;;;;;;9.57;100.00;102800.56;7399331;19;20877;-56
2021/10/09 04:05:23;;;;;;;31.43;18.30;;;;;;;9.59;100.00;102793.84;7392611;19;20475;-55
2021/10/09 04:07:53;;;;;;;28.80;18.57;;;;;;;9.44;100.00;102793.53;7399255;19;20451;-56
2021/10/09 04:10:22;;;;;;;29.23;16.57;;;;;;;9.23;100.00;102792.75;7392073;19;20436;-52
2021/10/09 04:12:55;;;;;;;28.00;17.20;;;;;;;9.08;100.00;102794.09;7399510;19;20402;-56
2021/10/09 04:15:24;;;;;;;30.53;18.10;;;;;;;8.91;100.00;102791.06;7392143;19;20460;-54
2021/10/09 04:17:54;;;;;;;28.17;17.70;;;;;;;9.05;100.00;102795.66;7398948;19;20716;-51
2021/10/09 04:20:23;;;;;;;32.90;18.03;;;;;;;8.94;100.00;102798.13;7395129;19;20444;-56
2021/10/09 04:22:53;;;;;;;38.73;23.40;;;;;;;9.08;100.00;102796.66;7398766;19;20398;-51
2021/10/09 04:25:23;;;;;;;38.60;22.20;;;;;;;8.75;100.00;102794.03;7392114;19;20423;-56
2021/10/09 04:27:55;;;;;;;45.13;25.23;;;;;;;8.51;100.00;102799.88;7398690;19;20392;-56
2021/10/09 04:30:25;;;;;;;51.63;26.80;;;;;;;8.46;100.00;102796.00;7392011;19;20415;-51
2021/10/09 04:32:54;;;;;;;48.53;27.77;;;;;;;8.33;100.00;102801.81;7398419;19;20864;-54
2021/10/09 04:35:24;;;;;;;44.40;24.73;;;;;;;8.29;100.00;102806.53;7381117;19;20462;-55
2021/10/09 04:37:53;;;;;;;33.90;17.67;;;;;;;8.16;100.00;102805.50;7400592;19;20710;-55
2021/10/09 04:40:23;;;;;;;41.17;23.70;;;;;;;8.13;100.00;102807.81;7391290;19;20430;-54
2021/10/09 04:42:52;;;;;;;42.70;24.77;;;;;;;8.01;100.00;102807.69;7398220;19;20852;-54
2021/10/09 04:45:24;;;;;;;42.00;22.13;;;;;;;7.92;100.00;102810.38;7395111;19;20431;-56
2021/10/09 04:47:54;;;;;;;34.80;19.37;;;;;;;7.83;100.00;102809.56;7405827;19;20645;-49
2021/10/09 04:50:23;;;;;;;42.13;21.87;;;;;;;7.81;100.00;102814.59;7402545;19;20430;-54
2021/10/09 04:52:53;;;;;;;42.90;23.20;;;;;;;7.95;100.00;102815.78;7405377;19;20471;-55
2021/10/09 04:55:22;;;;;;;32.00;19.20;;;;;;;7.90;100.00;102822.19;7398683;19;20433;-57
2021/10/09 04:57:52;;;;;;;38.40;21.93;;;;;;;7.89;100.00;102819.50;7409371;19;20471;-51
2021/10/09 05:00:21;;;;;;;33.23;19.10;;;;;;;7.77;100.00;102809.06;7398445;19;20431;-55
2021/10/09 05:02:53;;;;;;;34.00;20.07;;;;;;;7.66;100.00;102815.84;7405218;19;20401;-56
2021/10/09 05:05:23;;;;;;;42.60;23.63;;;;;;;7.73;100.00;102827.56;7401920;19;20425;-56
2021/10/09 05:07:52;;;;;;;47.70;28.37;;;;;;;7.86;100.00;102827.84;7405380;19;20383;-52
2021/10/09 05:10:24;;;;;;;51.87;30.27;;;;;;;8.17;100.00;102825.31;7397701;19;20449;-54
2021/10/09 05:13:05;;;;;;;55.20;30.33;;;;;;;8.26;100.00;102829.44;7404663;19;20406;-55
2021/10/09 05:15:35;;;;;;;32.93;18.43;;;;;;;8.43;100.00;102826.63;7397394;19;20483;-53
2021/10/09 05:18:07;;;;;;;32.17;19.23;;;;;;;8.05;100.00;102824.28;7406771;19;20913;-55
2021/10/09 05:20:36;;;;;;;29.80;18.20;;;;;;;7.82;100.00;102818.06;7400948;19;20470;-56
2021/10/09 05:23:06;;;;;;;33.73;20.00;;;;;;;7.60;100.00;102816.22;7404274;19;20463;-55
2021/10/09 05:25:37;;;;;;;33.20;19.00;;;;;;;7.55;100.00;102827.75;7397681;19;20411;-56
2021/10/09 05:28:10;;;;;;;42.67;20.10;;;;;;;7.51;100.00;102838.53;7404661;19;20451;-54
2021/10/09 05:30:46;;;;;;;38.30;20.87;;;;;;;7.45;100.00;102840.56;7397996;19;20912;-56
2021/10/09 05:33:26;;;;;;;32.00;18.53;;;;;;;7.40;100.00;102843.59;7403719;19;20418;-55
2021/10/09 05:35:55;;;;;;;34.27;19.53;;;;;;;7.33;100.00;102845.53;7397493;19;20710;-53
2021/10/09 05:38:24;;;;;;;34.60;20.80;;;;;;;7.26;100.00;102847.53;7404083;19;20409;-53
2021/10/09 05:40:55;;;;;;;33.37;19.67;;;;;;;7.34;100.00;102853.34;7397289;19;20451;-57
2021/10/09 05:43:25;;;;;;;32.73;19.17;;;;;;;7.33;100.00;102851.53;7403352;19;20419;-53
2021/10/09 05:45:55;;;;;;;34.70;20.23;;;;;;;7.25;100.00;102852.53;7395785;19;20715;-55
2021/10/09 05:48:28;;;;;;;36.97;20.87;;;;;;;7.18;100.00;102852.75;7403811;19;20395;-57
2021/10/09 05:51:02;;;;;;;34.93;19.33;;;;;;;7.18;100.00;102856.22;7388421;19;20483;-57
2021/10/09 05:53:46;;;;;;;36.63;20.57;;;;;;;7.18;100.00;102857.91;7406603;19;20502;-56
2021/10/09 05:56:24;;;;;;;41.27;18.23;;;;;;;7.10;100.00;102854.63;7394066;19;20511;-57
2021/10/09 05:59:07;;;;;;;35.07;19.80;;;;;;;7.10;100.00;102860.69;7403624;19;20398;-56
2021/10/09 06:59:31;;;;;;;35.93;20.33;;;;;;;9.10;100.00;102854.34;7401099;19;20387;-56
2021/10/09 07:02:01;;;;;;;39.63;21.13;;;;;;;9.15;100.00;102858.19;7371174;19;20411;-55
2021/10/09 07:04:31;;;;;;;27.10;17.17;;;;;;;9.17;100.00;102861.78;7399395;19;20493;-55
2021/10/09 07:07:03;;;;;;;36.57;19.77;;;;;;;9.28;100.00;102863.56;7396613;19;20478;-53
2021/10/09 07:09:35;;;;;;;35.87;17.43;;;;;;;9.35;100.00;102861.47;7402980;19;20471;-54
2021/10/09 07:12:05;;;;;;;86.50;46.83;;;;;;;9.48;100.00;102865.97;7397259;19;20437;-56
2021/10/09 07:14:34;;;;;;;79.30;42.50;;;;;;;9.50;100.00;102873.03;7401028;19;20498;-53
2021/10/09 07:17:04;;;;;;;39.60;21.80;;;;;;;9.41;100.00;102869.69;7373894;19;20458;-56
2021/10/09 07:19:33;;;;;;;45.47;24.60;;;;;;;9.26;100.00;102878.00;7401403;19;20682;-55
2021/10/09 07:22:03;;;;;;;44.43;20.20;;;;;;;9.16;100.00;102880.59;7395027;19;20439;-54
2021/10/09 07:24:55;;;;;;;32.43;18.77;;;;;;;8.98;100.00;102880.00;7398521;19;20435;-54
2021/10/09 07:27:24;;;;;;;38.13;19.27;;;;;;;8.81;100.00;102886.34;7378152;19;20684;-54
2021/10/09 07:29:54;;;;;;;42.13;20.37;;;;;;;8.66;100.00;102889.41;7399946;19;20909;-52
2021/10/09 07:32:24;;;;;;;27.40;15.90;;;;;;;8.65;100.00;102890.19;7395999;19;20714;-55
2021/10/09 07:34:54;;;;;;;36.80;18.57;;;;;;;8.70;100.00;102896.63;7398417;19;20471;-56
2021/10/09 07:37:23;;;;;;;33.10;19.10;;;;;;;8.75;100.00;102900.50;7395588;19;20696;-52
2021/10/09 07:39:55;;;;;;;52.67;25.03;;;;;;;8.85;100.00;102899.59;7399713;19;20857;-55
2021/10/09 07:42:26;;;;;;;35.40;16.03;;;;;;;8.83;100.00;102905.38;7397536;19;20447;-53
2021/10/09 07:44:55;;;;;;;41.90;24.20;;;;;;;8.95;100.00;102901.25;7398021;19;20427;-53
2021/10/09 07:47:25;;;;;;;32.47;15.83;;;;;;;8.89;100.00;102900.75;7398188;19;20415;-53
2021/10/09 07:49:54;;;;;;;32.13;17.67;;;;;;;9.04;100.00;102896.84;7400038;19;20467;-54
2021/10/09 07:52:24;;;;;;;26.20;15.30;;;;;;;8.87;100.00;102897.16;7395581;19;21092;-54
2021/10/09 07:54:56;;;;;;;41.80;20.97;;;;;;;8.91;100.00;102894.03;7397588;19;20750;-53
2021/10/09 07:57:27;;;;;;;37.50;18.27;;;;;;;9.03;100.00;102896.75;7398645;19;20435;-55
2021/10/09 07:59:56;;;;;;;31.80;15.70;;;;;;;9.07;100.00;102895.31;7401157;19;20410;-56
2021/10/09 08:02:26;;;;;;;28.33;16.83;;;;;;;9.08;100.00;102891.97;7397106;19;20495;-49
2021/10/09 08:04:55;;;;;;;38.73;19.13;;;;;;;9.19;100.00;102892.03;7397317;19;20453;-56
2021/10/09 08:07:25;;;;;;;37.53;18.83;;;;;;;9.24;100.00;102884.72;7391877;19;20467;-54
2021/10/09 08:09:57;;;;;;;30.93;14.83;;;;;;;9.23;100.00;102888.03;7398882;19;20418;-53
2021/10/09 08:12:27;;;;;;;31.40;16.07;;;;;;;9.27;100.00;102886.63;7397592;19;20426;-49
2021/10/09 08:14:57;;;;;;;27.90;15.17;;;;;;;9.37;100.00;102886.59;7399997;19;20775;-51
2021/10/09 08:17:26;;;;;;;25.30;16.17;;;;;;;9.53;100.00;102888.72;7397681;19;20423;-50
2021/10/09 08:19:56;;;;;;;27.40;16.20;;;;;;;9.53;100.00;102874.97;7406566;19;20396;-49
2021/10/09 08:22:30;;;;;;;31.73;16.47;;;;;;;9.56;100.00;102881.25;7411198;19;20450;-57
2021/10/09 08:25:21;;;;;;;30.27;16.30;;;;;;;9.59;100.00;102886.63;7410476;19;20423;-55
2021/10/09 08:28:04;;;;;;;28.43;15.20;;;;;;;9.64;100.00;102875.81;7412769;19;20709;-53
2021/10/09 08:36:28;;;;;;;38.10;14.87;;;;;;;9.89;100.00;102870.00;7401514;19;20411;-52
2021/10/09 08:38:55;;;;;;;27.33;14.70;;;;;;;9.88;100.00;102866.53;7412623;19;20403;-51
2021/10/09 08:41:48;;;;;;;30.07;14.50;;;;;;;9.96;100.00;102877.44;7404884;19;20551;-57
2021/10/09 08:44:17;;;;;;;28.43;15.87;;;;;;;10.04;100.00;102873.78;7410875;19;20412;-55
2021/10/09 08:46:47;;;;;;;35.40;16.50;;;;;;;10.15;100.00;102881.47;7404383;19;20937;-56
2021/10/09 08:49:16;;;;;;;30.90;16.80;;;;;;;10.17;100.00;102875.63;7412715;19;20395;-56
2021/10/09 08:51:51;;;;;;;29.57;16.40;;;;;;;10.24;100.00;102875.31;7405327;19;20426;-53
2021/10/09 08:54:21;;;;;;;25.60;12.83;;;;;;;10.30;100.00;102877.47;7410826;19;20419;-54
2021/10/09 08:56:53;;;;;;;23.73;12.40;;;;;;;10.39;100.00;102878.19;7404276;19;20419;-54
2021/10/09 08:59:25;;;;;;;24.27;11.93;;;;;;;10.40;100.00;102874.81;7412047;19;20463;-56
2021/10/09 09:02:09;;;;;;;28.73;12.80;;;;;;;10.51;100.00;102880.81;7404276;19;21210;-53
2021/10/09 09:04:50;;;;;;;26.03;12.90;;;;;;;10.55;100.00;102881.94;7409730;19;20419;-54
2021/10/09 09:26:47;;;;;;;21.63;10.00;;;;;;;11.12;100.00;102880.13;7406557;19;20462;-56
2021/10/09 09:32:25;;;;;;;31.10;9.47;;;;;;;11.28;100.00;102883.84;7392682;19;20423;-55
2021/10/09 09:35:06;;;;;;;27.30;12.73;;;;;;;11.51;100.00;102869.09;7401572;19;20412;-55
2021/10/09 09:38:53;;;;;;;47.93;22.60;;;;;;;11.77;100.00;102868.34;7402378;19;20415;-53
2021/10/09 09:40:42;;;;;;;27.50;9.33;;;;;;;11.90;100.00;102864.97;7399876;19;20451;-54
2021/10/09 09:43:12;;;;;;;20.67;9.30;;;;;;;11.92;100.00;102860.78;7402315;19;20441;-52
2021/10/09 09:45:45;;;;;;;18.63;8.77;;;;;;;12.01;100.00;102857.94;7399491;19;20471;-55
2021/10/09 09:48:14;;;;;;;18.77;8.87;;;;;;;12.07;100.00;102863.56;7405010;19;20845;-54
2021/10/09 09:50:44;;;;;;;19.13;8.37;;;;;;;12.06;100.00;102868.63;7399564;19;20495;-55
2021/10/09 09:53:14;;;;;;;20.60;8.07;;;;;;;12.11;100.00;102867.28;7405184;19;20434;-54
2021/10/09 09:55:43;;;;;;;16.80;7.87;;;;;;;12.34;100.00;102866.25;7398845;19;20491;-54
2021/10/09 09:58:24;;;;;;;16.83;7.60;;;;;;;12.44;100.00;102860.00;7407385;19;20403;-50
2021/10/09 10:00:59;;;;;;;15.50;7.30;;;;;;;12.53;100.00;102865.81;7377582;19;20450;-52
2021/10/09 10:03:31;;;;;;;12.33;6.30;;;;;;;12.79;100.00;102864.06;7400642;19;20419;-51
2021/10/09 10:06:01;;;;;;;16.93;6.70;;;;;;;12.79;100.00;102856.31;7399010;19;20478;-52
2021/10/09 10:08:30;;;;;;;51.97;28.27;;;;;;;12.99;100.00;102855.81;7402558;19;20452;-50
2021/10/09 10:11:01;;;;;;;24.50;10.80;;;;;;;13.06;100.00;102858.91;7399735;19;20474;-51
2021/10/09 10:13:32;;;;;;;33.50;15.93;;;;;;;13.17;100.00;102851.81;7401606;19;20445;-56
2021/10/09 10:16:07;;;;;;;16.30;8.10;;;;;;;13.20;100.00;102858.91;7401022;19;20474;-51
2021/10/09 10:18:50;;;;;;;28.10;10.03;;;;;;;13.28;100.00;102849.91;7402509;19;20402;-49
2021/10/09 10:21:21;;;;;;;13.27;6.40;;;;;;;13.33;100.00;102848.50;7401314;19;20457;-49
2021/10/09 10:23:50;;;;;;;14.23;7.20;;;;;;;13.49;100.00;102850.41;7400614;19;20960;-55
2021/10/09 10:26:31;;;;;;;20.87;8.40;;;;;;;13.56;100.00;102846.53;7375064;19;20700;-53
2021/10/09 10:29:33;;;;;;;15.50;6.90;;;;;;;13.55;100.00;102849.91;7402191;19;20747;-56
2021/10/09 10:32:18;;;;;;;18.80;7.13;;;;;;;13.62;100.00;102849.50;7375576;19;20519;-56
2021/10/09 10:34:49;;;;;;;15.30;5.47;;;;;;;13.64;100.00;102845.28;7400438;19;20479;-55
2021/10/09 10:37:35;;;;;;;23.77;6.37;;;;;;;13.69;100.00;102848.16;7374736;19;20865;-52
2021/10/09 10:40:07;;;;;;;21.60;10.27;;;;;;;13.85;100.00;102850.00;7369485;19;20400;-58
2021/10/09 10:42:38;;;;;;;32.93;16.30;;;;;;;14.09;100.00;102847.13;7399792;19;20417;-54
2021/10/09 10:45:18;;;;;;;14.33;5.90;;;;;;;14.14;100.00;102842.22;7398877;19;20386;-56
2021/10/09 10:48:14;;;;;;;14.20;7.53;;;;;;;14.00;99.86;102844.88;7401497;19;20463;-54
2021/10/09 10:51:13;;;;;;;21.83;9.97;;;;;;;14.06;98.64;102844.38;7398165;19;20483;-53
2021/10/09 10:54:16;;;;;;;22.17;10.50;;;;;;;14.36;99.71;102841.78;7401913;19;20424;-56
2021/10/09 10:57:16;;;;;;;17.67;9.07;;;;;;;14.41;100.00;102842.97;7365786;19;20462;-51
2021/10/09 10:59:49;;;;;;;17.90;10.37;;;;;;;14.55;100.00;102840.28;7401371;19;20902;-55
2021/10/09 11:02:20;;;;;;;14.90;7.83;;;;;;;14.76;100.00;102842.41;7400270;19;20877;-56
2021/10/09 11:04:54;;;;;;;16.80;6.90;;;;;;;14.78;99.12;102838.16;7399676;19;20422;-55
2021/10/09 11:07:27;;;;;;;22.73;10.60;;;;;;;14.84;100.00;102834.22;7374942;19;20415;-56
2021/10/09 11:10:03;;;;;;;21.93;10.10;;;;;;;14.82;99.73;102834.94;7404709;19;20416;-55
2021/10/09 11:12:34;;;;;;;37.87;19.10;;;;;;;14.72;96.91;102834.38;7404429;19;20463;-57
2021/10/09 11:15:20;;;;;;;12.57;6.63;;;;;;;14.70;93.56;102832.50;7379344;19;20415;-56
2021/10/09 11:17:51;;;;;;;23.43;15.07;;;;;;;14.68;97.08;102831.50;7399585;19;20451;-55
2021/10/09 11:20:28;;;;;;;14.57;7.50;;;;;;;14.65;92.15;102834.81;7367539;19;25253;-57
2021/10/09 11:23:00;;;;;;;15.97;6.73;;;;;;;14.80;87.91;102831.34;7399000;19;20415;-52
2021/10/09 11:25:32;;;;;;;19.83;11.07;;;;;;;14.69;88.53;102826.41;7392416;19;20420;-53
2021/10/09 11:28:05;;;;;;;17.53;7.63;;;;;;;14.55;86.76;102823.00;7401346;19;20384;-57
2021/10/09 11:30:36;;;;;;;14.17;6.53;;;;;;;14.71;87.83;102823.88;7396050;19;20455;-55
2021/10/09 11:33:06;;;;;;;18.43;7.83;;;;;;;14.88;86.99;102824.91;7400106;19;20897;-53
2021/10/09 11:35:40;;;;;;;12.77;6.00;;;;;;;14.83;87.80;102821.16;7372748;19;20403;-57
2021/10/09 11:38:20;;;;;;;19.60;7.00;;;;;;;14.82;85.66;102814.16;7399288;19;20389;-56
2021/10/09 11:40:52;;;;;;;10.77;6.13;;;;;;;14.89;87.40;102810.19;7373312;19;20399;-55
2021/10/09 11:43:27;;;;;;;8.50;5.53;;;;;;;14.93;89.66;102814.75;7398729;19;20497;-51
2021/10/09 11:46:08;;;;;;;25.50;12.17;;;;;;;15.17;93.94;102812.63;7373838;19;20426;-53
2021/10/09 11:54:24;;;;;;;11.50;5.50;;;;;;;15.01;85.26;102815.22;7400201;19;20491;-57
2021/10/09 11:56:54;;;;;;;24.03;6.73;;;;;;;15.15;85.70;102814.25;7395452;19;20434;-54
2021/10/09 11:59:38;;;;;;;15.27;7.73;;;;;;;15.16;82.27;102803.06;7399719;19;20440;-54
2021/10/09 12:02:07;;;;;;;13.73;7.47;;;;;;;15.07;80.67;102813.81;7392884;19;20474;-51
2021/10/09 12:04:38;;;;;;;29.97;15.10;;;;;;;14.94;85.22;102814.88;7397297;19;20426;-55
2021/10/09 12:07:11;;;;;;;60.83;36.43;;;;;;;15.05;82.83;102811.94;7391568;19;20486;-51
2021/10/09 12:09:45;;;;;;;13.53;6.50;;;;;;;15.16;80.54;102808.25;7400150;19;20676;-52
2021/10/09 12:12:20;;;;;;;17.60;7.50;;;;;;;14.96;79.18;102813.22;7368833;19;20726;-54
2021/10/09 12:14:51;;;;;;;14.57;7.87;;;;;;;15.34;82.52;102810.97;7400102;19;20520;-51
2021/10/09 12:17:22;;;;;;;15.13;6.60;;;;;;;15.21;80.57;102804.19;7391107;19;20453;-58
2021/10/09 12:20:07;;;;;;;18.70;7.77;;;;;;;15.44;81.02;102796.75;7400649;19;20399;-57
2021/10/09 12:22:48;;;;;;;16.23;6.53;;;;;;;15.65;81.59;102798.72;7400123;19;20495;-57
2021/10/09 12:25:24;;;;;;;18.90;8.70;;;;;;;16.06;77.31;102794.81;7390905;19;20455;-57
2021/10/09 12:27:57;;;;;;;26.10;13.73;;;;;;;16.56;80.89;102793.81;7399924;19;20455;-59
2021/10/09 12:30:36;;;;;;;23.93;10.10;;;;;;;16.78;76.54;102785.34;7368770;19;20399;-59
2021/10/09 12:33:06;;;;;;;21.17;10.80;;;;;;;17.11;74.74;102790.41;7397429;19;20933;-53
2021/10/09 12:35:35;;;;;;;17.20;8.80;;;;;;;17.62;75.08;102786.59;7365245;19;20387;-57
2021/10/09 12:38:09;;;;;;;17.83;9.83;;;;;;;18.04;70.57;102787.50;7397433;19;20463;-57
2021/10/09 12:40:41;;;;;;;17.37;9.50;;;;;;;17.88;65.00;102784.25;7390482;19;20432;-58
2021/10/09 12:43:13;;;;;;;15.27;8.17;;;;;;;18.08;61.58;102784.25;7398174;19;20433;-55
2021/10/09 12:45:43;;;;;;;13.73;6.47;;;;;;;18.14;61.51;102781.91;7390795;19;20411;-56
2021/10/09 12:48:13;;;;;;;16.90;7.60;;;;;;;18.18;60.05;102776.00;7398384;19;20423;-57
2021/10/09 12:50:45;;;;;;;11.97;5.97;;;;;;;18.34;60.18;102768.78;7390856;19;20487;-54
2021/10/09 12:53:17;;;;;;;13.10;5.20;;;;;;;18.28;53.74;102764.19;7397818;19;20430;-56
2021/10/09 12:55:46;;;;;;;15.83;7.87;;;;;;;18.30;57.09;102767.75;7389643;19;20681;-53
2021/10/09 12:58:16;;;;;;;17.30;6.20;;;;;;;18.06;51.10;102770.25;7396587;19;20392;-56
2021/10/09 13:00:45;;;;;;;18.70;10.77;;;;;;;18.33;54.14;102767.00;7392928;19;20423;-57
2021/10/09 13:03:15;;;;;;;27.37;14.90;;;;;;;18.73;54.61;102767.72;7394780;19;20439;-52
2021/10/09 13:05:44;;;;;;;22.10;10.90;;;;;;;18.96;52.83;102755.56;7376186;19;20425;-53